Time;durP1;ratioP1;P1;durP2;ratioP2;P2;SDS_P1;SDS_P2;PMS_P1;PMS_P2;Temp;Humidity;BMP_temperature;BMP_pressure;BME280_temperature;BME280_humidity;BME280_pressure;Samples;Min_cycle;Max_cycle;Signal;HPM_P1;HPM_P2
2021/11/10 00:00:52;;;;;;;;;;;19.70;99.90;;;;;;6185359;23;19904;-67
2021/11/10 00:03:19;;;;;;;;;;;19.70;99.90;;;;;;6185259;23;19927;-68
2021/11/10 00:05:46;;;;;;;;;;;19.70;99.90;;;;;;6185051;23;19904;-73
2021/11/10 00:08:13;;;;;;;;;;;19.80;99.90;;;;;;6185242;23;19904;-70
2021/11/10 00:10:39;;;;;;;;;;;19.80;99.90;;;;;;6184931;23;19932;-74
2021/11/10 00:13:21;;;;;;;;;;;19.80;99.90;;;;;;6158926;23;19917;-67
2021/11/10 00:15:50;;;;;;;;;;;19.80;99.90;;;;;;6185660;23;19924;-79
2021/11/10 00:18:17;;;;;;;;;;;19.90;99.90;;;;;;6185207;23;19904;-78
2021/11/10 00:20:45;;;;;;;;;;;19.90;99.90;;;;;;6184889;23;19905;-73
2021/11/10 00:23:12;;;;;;;;;;;19.90;99.90;;;;;;6185150;23;19904;-68
2021/11/10 00:25:39;;;;;;;;;;;20.00;99.90;;;;;;6185415;23;19911;-73
2021/11/10 00:28:06;;;;;;;;;;;20.00;99.90;;;;;;6185258;23;19904;-75
2021/11/10 00:30:33;;;;;;;;;;;20.00;99.90;;;;;;6185166;23;20275;-75
2021/11/10 00:32:59;;;;;;;;;;;20.10;99.90;;;;;;6185536;23;19915;-68
2021/11/10 00:35:26;;;;;;;;;;;20.10;99.90;;;;;;6158330;23;20312;-75
2021/11/10 00:37:53;;;;;;;;;;;20.00;99.90;;;;;;6185231;23;20340;-68
2021/11/10 00:40:20;;;;;;;;;;;20.10;99.90;;;;;;6185067;23;19986;-68
2021/11/10 00:42:46;;;;;;;;;;;20.10;99.90;;;;;;6185000;23;19908;-79
2021/11/10 00:45:13;;;;;;;;;;;20.10;99.90;;;;;;6185200;23;19904;-72
2021/11/10 00:47:39;;;;;;;;;;;20.10;99.90;;;;;;6185162;23;20271;-72
2021/11/10 00:50:07;;;;;;;;;;;20.20;99.90;;;;;;6184694;23;20362;-78
2021/11/10 00:52:33;;;;;;;;;;;20.20;99.90;;;;;;6184470;23;20278;-76
2021/11/10 00:55:00;;;;;;;;;;;20.10;99.90;;;;;;6184567;23;19963;-68
2021/11/10 00:57:27;;;;;;;;;;;20.20;99.90;;;;;;6184837;23;20084;-70
2021/11/10 00:59:53;;;;;;;;;;;20.20;99.90;;;;;;6184739;23;20209;-78
2021/11/10 01:02:20;;;;;;;;;;;20.30;99.90;;;;;;6185088;23;20323;-76
2021/11/10 01:04:47;;;;;;;;;;;20.30;99.90;;;;;;6185095;23;19905;-76
2021/11/10 01:07:13;;;;;;;;;;;20.30;99.90;;;;;;6185803;23;19911;-73
2021/11/10 01:09:42;;;;;;;;;;;20.20;99.90;;;;;;6185180;23;19912;-73
2021/11/10 01:12:13;;;;;;;;;;;20.10;99.90;;;;;;6181963;23;19927;-78
2021/11/10 01:14:40;;;;;;;;;;;20.00;99.90;;;;;;6183882;23;19927;-73
2021/11/10 01:17:08;;;;;;;;;;;20.00;99.90;;;;;;6158884;23;19990;-75
2021/11/10 01:19:37;;;;;;;;;;;20.10;99.90;;;;;;6158523;23;19944;-77
2021/11/10 01:22:04;;;;;;;;;;;20.10;99.90;;;;;;6158566;23;19959;-78
2021/11/10 01:24:31;;;;;;;;;;;20.00;99.90;;;;;;6185052;23;19908;-68
2021/11/10 01:27:03;;;;;;;;;;;20.00;99.90;;;;;;6184935;23;19911;-77
2021/11/10 01:29:31;;;;;;;;;;;20.00;99.90;;;;;;6185260;23;19908;-70
2021/11/10 01:31:58;;;;;;;;;;;19.90;99.90;;;;;;6184654;23;19904;-67
2021/11/10 01:34:24;;;;;;;;;;;19.90;99.90;;;;;;6184552;23;19904;-71
2021/11/10 01:36:51;;;;;;;;;;;19.90;99.90;;;;;;6184640;23;19916;-70
2021/11/10 01:39:18;;;;;;;;;;;19.80;99.90;;;;;;6184771;23;19918;-67
2021/11/10 01:41:46;;;;;;;;;;;19.70;99.90;;;;;;6184713;23;20274;-68
2021/11/10 01:44:15;;;;;;;;;;;19.70;99.90;;;;;;6184733;23;19959;-69
2021/11/10 01:46:41;;;;;;;;;;;19.60;99.90;;;;;;6184609;23;19955;-70
2021/11/10 01:49:08;;;;;;;;;;;19.60;99.90;;;;;;6184811;23;20240;-74
2021/11/10 01:51:40;;;;;;;;;;;19.60;99.90;;;;;;6184866;23;20314;-66
2021/11/10 01:54:07;;;;;;;;;;;19.70;99.90;;;;;;6184755;23;19966;-67
2021/11/10 01:56:33;;;;;;;;;;;19.60;99.90;;;;;;6184315;23;20279;-76
2021/11/10 01:59:00;;;;;;;;;;;19.50;99.90;;;;;;6184393;23;19991;-68
2021/11/10 02:01:27;;;;;;;;;;;19.50;99.90;;;;;;6184665;23;20328;-75
2021/11/10 02:04:01;;;;;;;;;;;19.50;99.90;;;;;;6184762;23;19908;-69
2021/11/10 02:06:28;;;;;;;;;;;19.40;99.90;;;;;;6093781;23;19997;-71
2021/11/10 02:08:54;;;;;;;;;;;19.40;99.90;;;;;;6094321;23;20232;-77
2021/11/10 02:11:21;;;;;;;;;;;19.50;99.90;;;;;;6094017;23;19910;-67
2021/11/10 02:13:48;;;;;;;;;;;19.60;99.90;;;;;;6094163;23;19909;-68
2021/11/10 02:16:14;;;;;;;;;;;19.50;99.90;;;;;;6093845;23;20222;-67
2021/11/10 02:18:41;;;;;;;;;;;19.50;99.90;;;;;;6093438;23;19917;-69
2021/11/10 02:21:09;;;;;;;;;;;19.50;99.90;;;;;;6094543;23;19980;-71
2021/11/10 02:23:36;;;;;;;;;;;19.50;99.90;;;;;;6094347;23;19905;-68
2021/11/10 02:26:11;;;;;;;;;;;19.50;99.90;;;;;;6095017;23;19905;-70
2021/11/10 02:28:38;;;;;;;;;;;19.50;99.90;;;;;;6093629;23;19912;-74
2021/11/10 02:34:04;;;;;;;;;;;19.60;99.90;;;;;;6083701;23;19936;-69
2021/11/10 02:36:50;;;;;;;;;;;19.50;99.90;;;;;;6095674;23;19916;-78
2021/11/10 02:39:21;;;;;;;;;;;19.50;99.90;;;;;;6066093;23;20021;-74
2021/11/10 02:41:48;;;;;;;;;;;19.50;99.90;;;;;;6071187;23;19912;-69
2021/11/10 02:44:18;;;;;;;;;;;19.50;99.90;;;;;;6155218;23;20244;-68
2021/11/10 02:46:50;;;;;;;;;;;19.50;99.90;;;;;;6186442;23;19939;-69
2021/11/10 02:49:18;;;;;;;;;;;19.40;99.90;;;;;;6158809;23;19911;-69
2021/11/10 02:52:08;;;;;;;;;;;19.30;99.90;;;;;;6186599;23;20311;-71
2021/11/10 02:54:37;;;;;;;;;;;19.40;99.90;;;;;;6158211;23;19911;-67
2021/11/10 02:57:25;;;;;;;;;;;19.40;99.90;;;;;;6186673;23;19988;-74
2021/11/10 03:00:03;;;;;;;;;;;19.40;99.90;;;;;;6161017;23;19916;-69
2021/11/10 03:02:30;;;;;;;;;;;19.40;99.90;;;;;;6185870;23;19912;-69
2021/11/10 03:04:58;;;;;;;;;;;19.50;99.90;;;;;;6186273;23;20216;-68
2021/11/10 03:07:25;;;;;;;;;;;19.50;99.90;;;;;;6185657;23;19905;-78
2021/11/10 03:12:56;;;;;;;;;;;19.50;99.90;;;;;;6137095;23;19927;-78
2021/11/10 03:15:23;;;;;;;;;;;19.50;99.90;;;;;;6160756;23;19990;-79
2021/11/10 03:17:59;;;;;;;;;;;19.50;99.90;;;;;;6186291;23;20335;-78
2021/11/10 03:20:26;;;;;;;;;;;19.50;99.90;;;;;;6185806;23;20354;-73
2021/11/10 03:22:52;;;;;;;;;;;19.50;99.90;;;;;;6185548;23;19908;-70
2021/11/10 03:25:28;;;;;;;;;;;19.50;99.90;;;;;;6185768;23;20253;-78
2021/11/10 03:28:07;;;;;;;;;;;19.40;99.90;;;;;;6186566;23;19911;-70
2021/11/10 03:30:34;;;;;;;;;;;19.40;99.90;;;;;;6185708;23;19904;-73
2021/11/10 03:33:01;;;;;;;;;;;19.40;99.90;;;;;;6185805;23;19967;-72
2021/11/10 03:35:31;;;;;;;;;;;19.40;99.90;;;;;;6185411;23;19908;-70
2021/11/10 03:41:00;;;;;;;;;;;19.30;99.90;;;;;;5111074;27;19916;-77
2021/11/10 03:43:26;;;;;;;;;;;19.30;99.90;;;;;;5105640;28;19912;-71
2021/11/10 03:45:53;;;;;;;;;;;19.40;99.90;;;;;;5110409;28;20336;-69
2021/11/10 03:48:19;;;;;;;;;;;19.30;99.90;;;;;;5110358;28;19937;-71
2021/11/10 03:50:46;;;;;;;;;;;19.40;99.90;;;;;;5108770;28;19908;-71
2021/11/10 03:53:13;;;;;;;;;;;19.40;99.90;;;;;;5110111;28;19998;-74
2021/11/10 03:55:46;;;;;;;;;;;19.40;99.90;;;;;;5110270;28;19958;-76
2021/11/10 03:58:12;;;;;;;;;;;19.40;99.90;;;;;;5110453;28;19961;-77
2021/11/10 04:00:57;;;;;;;;;;;19.40;99.90;;;;;;5109624;28;19944;-78
2021/11/10 04:03:25;;;;;;;;;;;19.40;99.90;;;;;;5110183;28;19951;-78
2021/11/10 04:05:52;;;;;;;;;;;19.40;99.90;;;;;;5110014;28;19908;-78
2021/11/10 04:08:19;;;;;;;;;;;19.40;99.90;;;;;;5108816;28;19908;-76
2021/11/10 04:10:59;;;;;;;;;;;19.40;99.90;;;;;;5109876;28;19908;-78
2021/11/10 04:13:30;;;;;;;;;;;19.50;99.90;;;;;;5108841;28;19927;-78
2021/11/10 04:16:04;;;;;;;;;;;19.50;99.90;;;;;;5108609;28;19995;-78
2021/11/10 04:18:33;;;;;;;;;;;19.50;99.90;;;;;;5109630;28;20254;-74
2021/11/10 04:21:10;;;;;;;;;;;19.50;99.90;;;;;;5109782;28;19919;-79
2021/11/10 04:23:53;;;;;;;;;;;;;;;;;;;;;
2021/11/10 04:26:22;;;;;;;;;;;19.50;99.90;;;;;;5109296;28;19912;-78
2021/11/10 04:28:48;;;;;;;;;;;19.40;99.90;;;;;;5109880;28;19909;-77
2021/11/10 04:31:15;;;;;;;;;;;19.40;99.90;;;;;;5109724;28;19999;-78
2021/11/10 04:33:42;;;;;;;;;;;19.30;99.90;;;;;;5109130;28;20389;-78
2021/11/10 04:36:09;;;;;;;;;;;19.40;99.90;;;;;;5109496;28;19908;-78
2021/11/10 04:38:36;;;;;;;;;;;19.40;99.90;;;;;;5108484;28;19943;-78
2021/11/10 04:41:31;;;;;;;;;;;19.40;99.90;;;;;;5109367;28;19914;-79
2021/11/10 04:44:04;;;;;;;;;;;19.40;99.90;;;;;;5108210;28;20014;-72
2021/11/10 04:46:33;;;;;;;;;;;19.30;99.90;;;;;;5108862;28;20289;-77
2021/11/10 04:49:00;;;;;;;;;;;19.30;99.90;;;;;;5109130;28;19947;-78
2021/11/10 04:51:27;;;;;;;;;;;19.20;99.90;;;;;;5097912;28;19950;-72
2021/11/10 04:53:53;;;;;;;;;;;19.20;99.90;;;;;;5095830;28;19951;-77
2021/11/10 04:56:20;;;;;;;;;;;19.20;99.90;;;;;;5095780;28;19958;-77
2021/11/10 04:58:47;;;;;;;;;;;19.30;99.90;;;;;;5093675;28;20400;-78
2021/11/10 05:01:32;;;;;;;;;;;19.20;99.90;;;;;;5095478;28;20381;-79
2021/11/10 05:03:59;;;;;;;;;;;19.40;99.90;;;;;;5094220;28;19934;-77
2021/11/10 05:06:26;;;;;;;;;;;19.50;99.90;;;;;;5095392;28;19954;-77
2021/11/10 05:09:05;;;;;;;;;;;19.70;99.90;;;;;;5095133;28;19931;-78
2021/11/10 05:11:32;;;;;;;;;;;19.60;99.90;;;;;;5093777;28;20349;-78
2021/11/10 05:16:45;;;;;;;;;;;19.50;99.90;;;;;;5093976;28;20324;-79
2021/11/10 05:19:12;;;;;;;;;;;19.50;99.90;;;;;;5093456;28;19920;-79
2021/11/10 05:21:39;;;;;;;;;;;19.50;99.90;;;;;;5094826;28;19919;-78
2021/11/10 05:24:05;;;;;;;;;;;19.50;99.90;;;;;;5095064;28;20366;-79
2021/11/10 05:26:32;;;;;;;;;;;19.50;99.90;;;;;;5094969;28;20286;-75
2021/11/10 05:28:59;;;;;;;;;;;19.60;99.90;;;;;;5096141;28;19908;-77
2021/11/10 05:31:35;;;;;;;;;;;19.50;99.90;;;;;;5095159;28;20290;-78
2021/11/10 05:34:50;;;;;;;;;;;;;;;;;;;;;
2021/11/10 05:37:22;;;;;;;;;;;19.50;99.90;;;;;;5087221;28;19908;-76
2021/11/10 05:39:48;;;;;;;;;;;19.60;99.90;;;;;;5094364;28;20354;-77
2021/11/10 05:42:16;;;;;;;;;;;19.40;99.90;;;;;;5095241;28;19909;-77
2021/11/10 05:44:42;;;;;;;;;;;19.30;99.90;;;;;;5092878;28;20350;-79
2021/11/10 05:50:18;;;;;;;;;;;19.30;99.90;;;;;;5083692;28;19973;-74
2021/11/10 05:52:45;;;;;;;;;;;19.20;99.90;;;;;;5091535;28;19912;-79
2021/11/10 05:55:22;;;;;;;;;;;19.20;99.90;;;;;;5092464;28;19935;-80
2021/11/10 05:57:50;;;;;;;;;;;19.20;99.90;;;;;;5092263;28;19912;-77
2021/11/10 06:00:16;;;;;;;;;;;19.20;99.90;;;;;;5092096;28;19916;-79
2021/11/10 06:02:44;;;;;;;;;;;19.20;99.90;;;;;;5091570;28;19919;-79
2021/11/10 06:05:13;;;;;;;;;;;19.20;99.90;;;;;;5092409;28;19918;-78
2021/11/10 06:08:21;;;;;;;;;;;;;;;;;;;;;
2021/11/10 06:10:48;;;;;;;;;;;19.30;99.90;;;;;;5091673;28;19912;-79
2021/11/10 06:13:15;;;;;;;;;;;19.30;99.90;;;;;;5091838;28;19908;-79
2021/11/10 06:15:41;;;;;;;;;;;19.30;99.90;;;;;;5091788;28;19916;-75
2021/11/10 06:18:11;;;;;;;;;;;19.30;99.90;;;;;;5090083;28;19915;-77
2021/11/10 06:20:38;;;;;;;;;;;19.30;99.90;;;;;;5091500;28;20366;-79
2021/11/10 06:23:05;;;;;;;;;;;19.30;99.90;;;;;;5091956;28;20264;-73
2021/11/10 06:25:32;;;;;;;;;;;19.30;99.90;;;;;;5091305;28;20453;-75
2021/11/10 06:27:59;;;;;;;;;;;19.20;99.90;;;;;;5091467;28;19939;-77
2021/11/10 06:30:26;;;;;;;;;;;19.20;99.90;;;;;;5090730;28;19908;-74
2021/11/10 06:32:52;;;;;;;;;;;19.30;99.90;;;;;;5090995;28;19915;-78
2021/11/10 06:35:19;;;;;;;;;;;19.30;99.90;;;;;;5091710;28;20485;-76
2021/11/10 06:38:08;;;;;;;;;;;19.20;99.90;;;;;;5091452;28;19912;-77
2021/11/10 06:40:35;;;;;;;;;;;19.30;99.90;;;;;;5091012;28;20018;-77
2021/11/10 06:43:02;;;;;;;;;;;19.20;99.90;;;;;;5090844;28;19916;-77
2021/11/10 06:45:43;;;;;;;;;;;19.30;99.90;;;;;;5090858;28;19912;-78
2021/11/10 06:48:10;;;;;;;;;;;19.30;99.90;;;;;;5090825;28;20297;-75
2021/11/10 06:50:36;;;;;;;;;;;19.30;99.90;;;;;;5090924;28;20322;-78
2021/11/10 06:53:03;;;;;;;;;;;19.30;99.90;;;;;;5090893;28;19961;-78
2021/11/10 06:55:30;;;;;;;;;;;19.20;99.90;;;;;;5091068;28;19935;-77
2021/11/10 06:57:56;;;;;;;;;;;19.20;99.90;;;;;;5090508;28;19908;-78
2021/11/10 07:00:32;;;;;;;;;;;19.20;99.90;;;;;;5090812;28;19916;-77
2021/11/10 07:02:59;;;;;;;;;;;19.30;99.90;;;;;;5090755;28;20364;-74
2021/11/10 07:05:26;;;;;;;;;;;19.20;99.90;;;;;;5090995;28;19908;-76
2021/11/10 07:07:53;;;;;;;;;;;19.20;99.90;;;;;;5090834;28;19908;-77
2021/11/10 07:10:41;;;;;;;;;;;19.20;99.90;;;;;;5090779;28;20656;-78
2021/11/10 07:13:08;;;;;;;;;;;19.20;99.90;;;;;;5090511;28;19953;-78
2021/11/10 07:15:35;;;;;;;;;;;19.30;99.90;;;;;;5090960;28;20366;-76
2021/11/10 07:18:05;;;;;;;;;;;19.30;99.90;;;;;;5090353;28;19978;-77
2021/11/10 07:20:31;;;;;;;;;;;19.20;99.90;;;;;;5089105;28;20084;-76
2021/11/10 07:22:59;;;;;;;;;;;19.30;99.90;;;;;;5090486;28;19908;-76
2021/11/10 07:25:27;;;;;;;;;;;19.30;99.90;;;;;;5089042;28;20084;-73
2021/11/10 07:27:53;;;;;;;;;;;19.30;99.90;;;;;;5089039;28;19908;-76
2021/11/10 07:30:20;;;;;;;;;;;19.20;99.90;;;;;;5089823;28;19916;-77
2021/11/10 07:32:47;;;;;;;;;;;19.20;99.90;;;;;;5090164;28;19920;-78
2021/11/10 07:35:14;;;;;;;;;;;19.20;99.90;;;;;;5090431;28;19944;-78
2021/11/10 07:37:42;;;;;;;;;;;19.10;99.90;;;;;;5090596;28;19919;-76
2021/11/10 07:40:13;;;;;;;;;;;19.10;99.90;;;;;;5089679;28;19920;-77
2021/11/10 07:42:39;;;;;;;;;;;19.10;99.90;;;;;;5088803;28;19912;-78
2021/11/10 07:45:09;;;;;;;;;;;19.10;99.90;;;;;;5090147;28;20209;-78
2021/11/10 07:47:41;;;;;;;;;;;19.20;99.90;;;;;;5090538;28;19948;-77
2021/11/10 07:50:09;;;;;;;;;;;19.20;99.90;;;;;;5089242;28;20334;-76
2021/11/10 07:52:35;;;;;;;;;;;19.10;99.90;;;;;;5090006;28;19912;-77
2021/11/10 07:55:03;;;;;;;;;;;19.20;99.90;;;;;;5090055;28;19936;-77
2021/11/10 07:57:30;;;;;;;;;;;19.20;99.90;;;;;;5090460;28;19916;-73
2021/11/10 07:59:56;;;;;;;;;;;19.20;99.90;;;;;;5090568;28;19926;-77
2021/11/10 08:02:32;;;;;;;;;;;19.20;99.90;;;;;;5089964;28;19965;-68
2021/11/10 08:04:59;;;;;;;;;;;19.20;99.90;;;;;;5090040;28;19977;-73
2021/11/10 08:07:26;;;;;;;;;;;19.20;99.90;;;;;;5092449;28;20022;-73
2021/11/10 08:09:52;;;;;;;;;;;19.30;99.90;;;;;;5092284;28;19914;-73
2021/11/10 08:12:19;;;;;;;;;;;19.20;99.90;;;;;;5092331;28;19944;-74
2021/11/10 08:14:46;;;;;;;;;;;19.30;99.90;;;;;;5092137;28;20010;-70
2021/11/10 08:17:12;;;;;;;;;;;19.20;99.90;;;;;;5092284;28;20438;-74
2021/11/10 08:19:39;;;;;;;;;;;19.20;99.90;;;;;;5092332;28;19922;-75
2021/11/10 08:22:06;;;;;;;;;;;19.30;99.90;;;;;;5090929;28;19947;-77
2021/11/10 08:24:33;;;;;;;;;;;19.30;99.90;;;;;;5092070;28;19908;-67
2021/11/10 08:27:00;;;;;;;;;;;19.20;99.90;;;;;;5095584;28;20282;-75
2021/11/10 08:29:29;;;;;;;;;;;19.20;99.90;;;;;;5096197;28;19909;-69
2021/11/10 08:31:56;;;;;;;;;;;19.20;99.90;;;;;;5095761;28;19915;-77
2021/11/10 08:34:28;;;;;;;;;;;19.20;99.90;;;;;;5095820;28;19908;-76
2021/11/10 08:36:58;;;;;;;;;;;19.20;99.90;;;;;;5128826;27;19912;-77
2021/11/10 08:39:28;;;;;;;;;;;19.20;99.90;;;;;;5095557;28;19924;-73
2021/11/10 08:42:09;;;;;;;;;;;19.20;99.90;;;;;;5094791;28;20577;-78
2021/11/10 08:44:40;;;;;;;;;;;19.30;99.90;;;;;;5095619;28;19931;-73
2021/11/10 08:47:08;;;;;;;;;;;19.30;99.90;;;;;;5095553;28;19908;-71
2021/11/10 08:49:35;;;;;;;;;;;19.20;99.90;;;;;;5095957;28;20313;-75
2021/11/10 08:52:26;;;;;;;;;;;19.20;99.90;;;;;;5095528;28;19915;-78
2021/11/10 08:54:56;;;;;;;;;;;19.20;99.90;;;;;;5094544;28;20362;-80
2021/11/10 08:57:23;;;;;;;;;;;19.20;99.90;;;;;;5095393;28;20247;-78
2021/11/10 09:00:12;;;;;;;;;;;19.20;99.90;;;;;;5095190;28;19939;-78
2021/11/10 09:02:48;;;;;;;;;;;19.20;99.90;;;;;;5087631;28;19916;-79
2021/11/10 09:05:28;;;;;;;;;;;19.20;99.90;;;;;;5095551;28;19908;-79
2021/11/10 09:07:55;;;;;;;;;;;19.20;99.90;;;;;;5094060;28;19954;-72
2021/11/10 09:10:33;;;;;;;;;;;19.30;99.90;;;;;;5095302;28;19908;-75
2021/11/10 09:13:00;;;;;;;;;;;19.30;99.90;;;;;;5095087;28;19955;-73
2021/11/10 09:15:27;;;;;;;;;;;19.30;99.90;;;;;;5095141;28;19908;-74
2021/11/10 09:17:54;;;;;;;;;;;19.20;99.90;;;;;;5094783;28;20002;-74
2021/11/10 09:20:22;;;;;;;;;;;19.20;99.90;;;;;;5094927;28;19951;-74
2021/11/10 09:22:58;;;;;;;;;;;19.20;99.90;;;;;;5095054;28;19991;-76
2021/11/10 09:25:29;;;;;;;;;;;19.20;99.90;;;;;;5094856;28;20016;-77
2021/11/10 09:27:59;;;;;;;;;;;19.20;99.90;;;;;;5093587;28;20011;-71
2021/11/10 09:30:27;;;;;;;;;;;19.20;99.90;;;;;;5093220;28;19961;-76
2021/11/10 09:32:55;;;;;;;;;;;19.20;99.90;;;;;;5094754;28;20363;-77
2021/11/10 09:35:22;;;;;;;;;;;19.20;99.90;;;;;;5094783;28;19930;-79
2021/11/10 09:37:53;;;;;;;;;;;19.20;99.90;;;;;;5094458;28;20332;-75
2021/11/10 09:40:22;;;;;;;;;;;19.30;99.90;;;;;;5094637;28;20054;-75
2021/11/10 09:42:49;;;;;;;;;;;19.20;99.90;;;;;;5083585;28;19908;-80
2021/11/10 09:45:17;;;;;;;;;;;19.30;99.90;;;;;;5106801;28;19909;-72
2021/11/10 09:47:44;;;;;;;;;;;19.30;99.90;;;;;;5073887;28;19931;-75
2021/11/10 09:50:15;;;;;;;;;;;19.30;99.90;;;;;;5074087;28;19909;-76
2021/11/10 09:52:41;;;;;;;;;;;19.30;99.90;;;;;;5073182;28;19931;-73
2021/11/10 09:55:09;;;;;;;;;;;19.30;99.90;;;;;;5074157;28;19908;-76
2021/11/10 09:57:40;;;;;;;;;;;19.20;99.90;;;;;;5073967;28;19915;-71
2021/11/10 10:00:08;;;;;;;;;;;19.20;99.90;;;;;;5072650;28;19962;-74
2021/11/10 10:02:35;;;;;;;;;;;19.20;99.90;;;;;;5073606;28;19916;-78
2021/11/10 10:05:18;;;;;;;;;;;19.10;99.90;;;;;;5106314;28;20416;-75
2021/11/10 10:07:52;;;;;;;;;;;19.20;99.90;;;;;;5072985;28;19996;-71
2021/11/10 10:10:44;;;;;;;;;;;19.10;99.90;;;;;;5073155;28;20274;-76
2021/11/10 10:13:20;;;;;;;;;;;19.10;99.90;;;;;;5068029;28;20349;-73
2021/11/10 10:15:48;;;;;;;;;;;19.10;99.90;;;;;;5073643;28;19980;-76
2021/11/10 10:18:20;;;;;;;;;;;19.10;99.90;;;;;;5073598;28;19915;-72
2021/11/10 10:20:51;;;;;;;;;;;19.00;99.90;;;;;;5073363;28;19912;-77
2021/11/10 10:23:18;;;;;;;;;;;19.00;99.90;;;;;;5073692;28;19908;-72
2021/11/10 10:25:48;;;;;;;;;;;18.90;99.90;;;;;;5073341;28;19916;-76
2021/11/10 10:28:16;;;;;;;;;;;18.90;99.90;;;;;;5072850;28;19912;-74
2021/11/10 10:30:50;;;;;;;;;;;18.90;99.90;;;;;;5073063;28;20280;-72
2021/11/10 10:33:45;;;;;;;;;;;18.90;99.90;;;;;;5073371;28;19909;-77
2021/11/10 10:36:14;;;;;;;;;;;18.90;99.90;;;;;;5068280;28;19920;-74
2021/11/10 10:39:05;;;;;;;;;;;18.80;99.90;;;;;;5073013;28;19924;-76
2021/11/10 10:42:01;;;;;;;;;;;18.90;99.90;;;;;;5104359;28;19970;-78
2021/11/10 10:44:28;;;;;;;;;;;18.80;99.90;;;;;;5069902;28;19915;-71
2021/11/10 10:46:58;;;;;;;;;;;18.80;99.90;;;;;;5072961;28;19915;-75
2021/11/10 10:49:46;;;;;;;;;;;18.80;99.90;;;;;;5072715;28;19908;-78
2021/11/10 10:52:14;;;;;;;;;;;18.80;99.90;;;;;;5105732;28;19909;-78
2021/11/10 10:54:42;;;;;;;;;;;18.80;99.90;;;;;;5072833;28;20003;-78
2021/11/10 10:57:43;;;;;;;;;;;18.80;99.90;;;;;;5072636;28;20431;-77
2021/11/10 11:00:14;;;;;;;;;;;18.80;99.90;;;;;;5071518;28;19967;-76
2021/11/10 11:02:40;;;;;;;;;;;18.90;99.90;;;;;;5071430;28;20025;-74
2021/11/10 11:05:07;;;;;;;;;;;18.80;99.90;;;;;;5072841;28;19909;-74
2021/11/10 11:07:36;;;;;;;;;;;18.80;99.90;;;;;;5072733;28;19916;-74
2021/11/10 11:10:14;;;;;;;;;;;18.80;99.90;;;;;;5072724;28;20282;-72
2021/11/10 11:12:50;;;;;;;;;;;18.80;99.90;;;;;;5070830;28;19908;-75
2021/11/10 11:15:27;;;;;;;;;;;18.80;99.90;;;;;;5072584;28;20283;-74
2021/11/10 11:18:32;;;;;;;;;;;18.80;99.90;;;;;;5072757;28;20006;-77
2021/11/10 11:21:07;;;;;;;;;;;18.80;99.90;;;;;;5050461;28;19923;-76
2021/11/10 11:23:41;;;;;;;;;;;18.90;99.90;;;;;;5032690;28;20365;-74
2021/11/10 11:26:33;;;;;;;;;;;18.90;99.90;;;;;;5062972;28;19999;-75
2021/11/10 11:29:00;;;;;;;;;;;18.90;99.90;;;;;;5071032;28;19919;-76
2021/11/10 11:31:35;;;;;;;;;;;18.90;99.90;;;;;;5070815;28;20377;-75
2021/11/10 11:34:04;;;;;;;;;;;18.90;99.90;;;;;;5071387;28;19909;-72
2021/11/10 11:37:03;;;;;;;;;;;18.90;99.90;;;;;;5072112;28;19961;-75
2021/11/10 11:39:34;;;;;;;;;;;18.90;99.90;;;;;;5060038;28;20136;-75
2021/11/10 11:42:01;;;;;;;;;;;18.90;99.90;;;;;;5071260;28;20410;-70
2021/11/10 11:44:36;;;;;;;;;;;18.90;99.90;;;;;;5070969;28;20017;-76
2021/11/10 11:47:05;;;;;;;;;;;18.90;99.90;;;;;;5071183;28;19962;-76
2021/11/10 11:49:51;;;;;;;;;;;18.90;99.90;;;;;;5072446;28;20407;-77
2021/11/10 11:52:31;;;;;;;;;;;;;;;;;;;;;
2021/11/10 11:55:00;;;;;;;;;;;18.90;99.90;;;;;;5072302;28;20623;-69
2021/11/10 11:57:27;;;;;;;;;;;19.00;99.90;;;;;;5071007;28;19912;-76
2021/11/10 12:00:10;;;;;;;;;;;19.10;99.90;;;;;;5072746;28;19916;-77
2021/11/10 12:03:03;;;;;;;;;;;19.10;99.90;;;;;;5075156;28;19915;-71
2021/11/10 12:05:30;;;;;;;;;;;19.10;99.90;;;;;;5073809;28;20370;-77
2021/11/10 12:07:57;;;;;;;;;;;19.10;99.90;;;;;;5076165;28;20049;-74
2021/11/10 12:10:24;;;;;;;;;;;19.00;99.90;;;;;;5076310;28;19909;-76
2021/11/10 12:13:20;;;;;;;;;;;19.10;99.90;;;;;;5076085;28;20424;-76
2021/11/10 12:16:05;;;;;;;;;;;19.10;99.90;;;;;;5072299;28;19912;-75
2021/11/10 12:18:45;;;;;;;;;;;19.10;99.90;;;;;;5075797;28;19913;-77
2021/11/10 12:21:12;;;;;;;;;;;19.00;99.90;;;;;;5074953;28;19919;-77
2021/11/10 12:23:51;;;;;;;;;;;19.00;99.90;;;;;;5076112;28;20011;-77
2021/11/10 12:26:19;;;;;;;;;;;19.00;99.90;;;;;;5108450;28;19908;-76
2021/11/10 12:28:55;;;;;;;;;;;18.90;99.90;;;;;;5075700;28;19975;-68
2021/11/10 12:31:50;;;;;;;;;;;18.90;99.90;;;;;;5075711;28;19916;-73
2021/11/10 12:34:20;;;;;;;;;;;18.90;99.90;;;;;;5075784;28;20363;-76
2021/11/10 12:36:53;;;;;;;;;;;18.90;99.90;;;;;;5075647;28;19996;-72
2021/11/10 12:39:29;;;;;;;;;;;18.90;99.90;;;;;;5075447;28;19951;-77
2021/11/10 12:42:00;;;;;;;;;;;18.90;99.90;;;;;;5075671;28;20262;-77
2021/11/10 12:44:27;;;;;;;;;;;18.90;99.90;;;;;;5075206;28;19935;-73
2021/11/10 12:46:54;;;;;;;;;;;18.80;99.90;;;;;;5075504;28;19915;-77
2021/11/10 12:49:21;;;;;;;;;;;18.80;99.90;;;;;;5073860;28;20277;-74
2021/11/10 12:52:07;;;;;;;;;;;18.80;99.90;;;;;;5075558;28;20356;-77
2021/11/10 12:54:34;;;;;;;;;;;18.90;99.90;;;;;;5075899;28;20329;-72
2021/11/10 12:57:00;;;;;;;;;;;18.90;99.90;;;;;;5075357;28;19912;-77
2021/11/10 12:59:28;;;;;;;;;;;19.00;99.90;;;;;;5075074;28;20007;-72
2021/11/10 13:02:12;;;;;;;;;;;19.00;99.90;;;;;;5075114;28;19908;-76
2021/11/10 13:04:47;;;;;;;;;;;19.00;99.90;;;;;;5075003;28;19909;-77
2021/11/10 13:07:44;;;;;;;;;;;19.00;99.90;;;;;;5075059;28;19940;-76
2021/11/10 13:10:10;;;;;;;;;;;18.90;99.90;;;;;;5074783;28;19909;-74
2021/11/10 13:12:40;;;;;;;;;;;18.90;99.90;;;;;;5074422;28;19915;-72
2021/11/10 13:15:07;;;;;;;;;;;18.90;99.90;;;;;;5073901;28;19908;-76
2021/11/10 13:17:35;;;;;;;;;;;19.00;99.90;;;;;;5073664;28;19948;-74
2021/11/10 13:20:07;;;;;;;;;;;18.90;99.90;;;;;;5074881;28;19916;-73
2021/11/10 13:22:36;;;;;;;;;;;19.00;99.90;;;;;;5107312;28;19916;-74
2021/11/10 13:25:09;;;;;;;;;;;18.90;99.90;;;;;;5074813;28;20362;-74
2021/11/10 13:27:41;;;;;;;;;;;18.90;99.90;;;;;;5107393;28;19909;-75
2021/11/10 13:30:12;;;;;;;;;;;18.80;99.90;;;;;;5074624;28;19915;-78
2021/11/10 13:32:43;;;;;;;;;;;18.80;99.90;;;;;;5074352;28;19912;-75
2021/11/10 13:35:12;;;;;;;;;;;18.80;99.90;;;;;;5074579;28;20355;-77
2021/11/10 13:37:49;;;;;;;;;;;18.80;99.90;;;;;;5073635;28;19908;-76
2021/11/10 13:40:17;;;;;;;;;;;18.80;99.90;;;;;;5074175;28;20361;-76
2021/11/10 13:42:47;;;;;;;;;;;18.80;99.90;;;;;;5074383;28;20382;-77
2021/11/10 13:45:16;;;;;;;;;;;18.80;99.90;;;;;;5074264;28;19909;-75
2021/11/10 13:47:56;;;;;;;;;;;18.80;99.90;;;;;;5074102;28;19908;-76
2021/11/10 13:50:48;;;;;;;;;;;18.80;99.90;;;;;;5073084;28;19916;-66
2021/11/10 13:53:17;;;;;;;;;;;18.80;99.90;;;;;;5073020;28;20377;-77
2021/11/10 13:55:57;;;;;;;;;;;18.80;99.90;;;;;;5074274;28;19953;-77
2021/11/10 14:01:10;;;;;;;;;;;18.80;99.90;;;;;;5100760;22;19924;-76
2021/11/10 14:03:37;;;;;;;;;;;18.80;99.90;;;;;;5092974;28;20366;-77
2021/11/10 14:06:13;;;;;;;;;;;18.80;99.90;;;;;;5094124;28;19999;-76
2021/11/10 14:08:42;;;;;;;;;;;18.80;99.90;;;;;;5093853;28;19908;-76
2021/11/10 14:11:12;;;;;;;;;;;18.80;99.90;;;;;;5092812;28;19909;-77
2021/11/10 14:13:50;;;;;;;;;;;18.80;99.90;;;;;;5094047;28;19908;-75
2021/11/10 14:16:19;;;;;;;;;;;18.80;99.90;;;;;;5090048;28;20017;-77
2021/11/10 14:18:49;;;;;;;;;;;18.70;99.90;;;;;;5092190;28;19913;-76
2021/11/10 14:21:39;;;;;;;;;;;18.80;99.90;;;;;;5093829;28;19916;-77
2021/11/10 14:24:09;;;;;;;;;;;18.70;99.90;;;;;;5045583;28;20400;-75
2021/11/10 14:26:35;;;;;;;;;;;18.70;99.90;;;;;;5092469;28;19908;-75
2021/11/10 14:29:02;;;;;;;;;;;18.70;99.90;;;;;;5094051;28;19914;-73
2021/11/10 14:31:37;;;;;;;;;;;18.70;99.90;;;;;;5092555;28;19954;-74
2021/11/10 14:34:11;;;;;;;;;;;18.70;99.90;;;;;;5091677;28;20016;-77
2021/11/10 14:36:58;;;;;;;;;;;18.70;99.90;;;;;;5093736;28;19912;-76
2021/11/10 14:39:26;;;;;;;;;;;18.70;99.90;;;;;;5091618;28;19916;-67
2021/11/10 14:41:59;;;;;;;;;;;18.80;99.90;;;;;;5092226;28;19915;-67
2021/11/10 14:44:45;;;;;;;;;;;18.80;99.90;;;;;;5092099;28;19916;-67
2021/11/10 14:47:11;;;;;;;;;;;18.70;99.90;;;;;;5093259;28;20308;-67
2021/11/10 14:49:42;;;;;;;;;;;18.70;99.90;;;;;;5093491;28;19962;-67
2021/11/10 14:52:26;;;;;;;;;;;18.70;99.90;;;;;;5092088;28;20324;-68
2021/11/10 14:54:54;;;;;;;;;;;18.70;99.90;;;;;;5091925;28;20363;-67
2021/11/10 14:57:25;;;;;;;;;;;18.60;99.90;;;;;;5092026;28;19916;-67
2021/11/10 14:59:58;;;;;;;;;;;18.70;99.90;;;;;;5091390;28;19970;-67
2021/11/10 15:02:33;;;;;;;;;;;18.70;99.90;;;;;;5091566;28;19939;-68